sensor_id;sensor_type;location;lat;lon;timestamp;pressure;altitude;pressure_sealevel;temperature;humidity
56042;BME280;48756;41.374;2.066;2023-04-26T00:00:57;100980.81;;;16.98;82.40
56042;BME280;48756;41.374;2.066;2023-04-26T00:03:25;100974.84;;;17.20;81.28
56042;BME280;48756;41.374;2.066;2023-04-26T00:05:51;100987.00;;;17.24;80.64
56042;BME280;48756;41.374;2.066;2023-04-26T00:08:16;100981.44;;;17.06;81.86
56042;BME280;48756;41.374;2.066;2023-04-26T00:10:42;100980.63;;;17.31;80.16
56042;BME280;48756;41.374;2.066;2023-04-26T00:13:07;100981.69;;;17.25;80.87
56042;BME280;48756;41.374;2.066;2023-04-26T00:15:33;100984.81;;;17.36;79.44
56042;BME280;48756;41.374;2.066;2023-04-26T00:17:59;100979.50;;;17.38;79.84
56042;BME280;48756;41.374;2.066;2023-04-26T00:20:24;100981.28;;;17.37;78.43
56042;BME280;48756;41.374;2.066;2023-04-26T00:22:50;100992.38;;;17.21;79.75
56042;BME280;48756;41.374;2.066;2023-04-26T00:25:15;100987.50;;;17.35;78.87
56042;BME280;48756;41.374;2.066;2023-04-26T00:27:41;100995.41;;;17.35;78.77
56042;BME280;48756;41.374;2.066;2023-04-26T00:30:07;100989.38;;;17.31;78.11
56042;BME280;48756;41.374;2.066;2023-04-26T00:32:33;100990.25;;;17.32;77.99
56042;BME280;48756;41.374;2.066;2023-04-26T00:34:59;100991.63;;;17.43;77.87
56042;BME280;48756;41.374;2.066;2023-04-26T00:37:27;100986.09;;;17.25;78.65
56042;BME280;48756;41.374;2.066;2023-04-26T00:39:53;100990.47;;;17.26;78.27
56042;BME280;48756;41.374;2.066;2023-04-26T00:42:18;100988.53;;;17.31;77.41
56042;BME280;48756;41.374;2.066;2023-04-26T00:44:44;100988.91;;;17.19;78.07
56042;BME280;48756;41.374;2.066;2023-04-26T00:47:09;100980.78;;;17.00;78.35
56042;BME280;48756;41.374;2.066;2023-04-26T00:49:35;100967.94;;;17.15;78.04
56042;BME280;48756;41.374;2.066;2023-04-26T00:52:00;100963.44;;;17.19;77.72
56042;BME280;48756;41.374;2.066;2023-04-26T00:54:26;100968.25;;;17.06;77.79
56042;BME280;48756;41.374;2.066;2023-04-26T00:56:52;100966.63;;;16.74;80.51
56042;BME280;48756;41.374;2.066;2023-04-26T00:59:18;100959.75;;;16.98;78.31
56042;BME280;48756;41.374;2.066;2023-04-26T01:01:44;100964.19;;;16.96;78.47
56042;BME280;48756;41.374;2.066;2023-04-26T01:04:10;100976.34;;;16.72;79.50
56042;BME280;48756;41.374;2.066;2023-04-26T01:06:37;100978.13;;;16.42;80.01
56042;BME280;48756;41.374;2.066;2023-04-26T01:09:03;100976.50;;;16.38;81.57
56042;BME280;48756;41.374;2.066;2023-04-26T01:11:32;100971.84;;;16.46;80.84
56042;BME280;48756;41.374;2.066;2023-04-26T01:13:59;100971.69;;;16.82;79.66
56042;BME280;48756;41.374;2.066;2023-04-26T01:16:25;100973.44;;;17.09;78.53
56042;BME280;48756;41.374;2.066;2023-04-26T01:18:52;100968.66;;;16.94;78.16
56042;BME280;48756;41.374;2.066;2023-04-26T01:21:21;100973.03;;;16.94;79.19
56042;BME280;48756;41.374;2.066;2023-04-26T01:23:47;100976.31;;;16.74;78.38
56042;BME280;48756;41.374;2.066;2023-04-26T01:26:13;100971.84;;;16.46;80.39
56042;BME280;48756;41.374;2.066;2023-04-26T01:28:39;100966.59;;;16.46;81.20
56042;BME280;48756;41.374;2.066;2023-04-26T01:31:05;100969.41;;;16.70;80.25
56042;BME280;48756;41.374;2.066;2023-04-26T01:33:30;100956.66;;;16.86;78.85
56042;BME280;48756;41.374;2.066;2023-04-26T01:35:56;100951.97;;;16.66;79.08
56042;BME280;48756;41.374;2.066;2023-04-26T01:38:21;100944.72;;;16.74;78.17
56042;BME280;48756;41.374;2.066;2023-04-26T01:40:47;100963.81;;;16.52;79.66
56042;BME280;48756;41.374;2.066;2023-04-26T01:43:13;100972.22;;;16.34;81.05
56042;BME280;48756;41.374;2.066;2023-04-26T01:45:39;100971.03;;;16.44;80.55
56042;BME280;48756;41.374;2.066;2023-04-26T01:48:05;100956.34;;;16.67;79.59
56042;BME280;48756;41.374;2.066;2023-04-26T01:50:34;100962.75;;;16.58;79.21
56042;BME280;48756;41.374;2.066;2023-04-26T01:52:59;100959.16;;;16.61;79.56
56042;BME280;48756;41.374;2.066;2023-04-26T01:55:25;100957.97;;;16.71;78.44
56042;BME280;48756;41.374;2.066;2023-04-26T01:57:51;100960.03;;;16.89;78.60
56042;BME280;48756;41.374;2.066;2023-04-26T02:00:17;100961.16;;;16.82;78.18
56042;BME280;48756;41.374;2.066;2023-04-26T02:02:42;100957.75;;;16.78;78.21
56042;BME280;48756;41.374;2.066;2023-04-26T02:05:09;100967.69;;;16.69;79.71
56042;BME280;48756;41.374;2.066;2023-04-26T02:07:35;100961.09;;;16.83;79.09
56042;BME280;48756;41.374;2.066;2023-04-26T02:10:00;100958.47;;;16.83;78.55
56042;BME280;48756;41.374;2.066;2023-04-26T02:12:26;100949.09;;;16.75;79.01
56042;BME280;48756;41.374;2.066;2023-04-26T02:14:51;100962.47;;;16.67;79.46
56042;BME280;48756;41.374;2.066;2023-04-26T02:17:17;100956.03;;;16.48;80.17
56042;BME280;48756;41.374;2.066;2023-04-26T02:19:42;100950.31;;;16.63;79.04
56042;BME280;48756;41.374;2.066;2023-04-26T02:22:08;100940.59;;;16.93;78.28
56042;BME280;48756;41.374;2.066;2023-04-26T02:24:33;100948.22;;;17.02;78.00
56042;BME280;48756;41.374;2.066;2023-04-26T02:26:59;100946.59;;;16.98;77.45
56042;BME280;48756;41.374;2.066;2023-04-26T02:29:27;100947.47;;;16.71;79.37
56042;BME280;48756;41.374;2.066;2023-04-26T02:31:53;100946.78;;;16.92;78.08
56042;BME280;48756;41.374;2.066;2023-04-26T02:34:19;100942.78;;;17.07;76.85
56042;BME280;48756;41.374;2.066;2023-04-26T02:36:47;100941.50;;;16.92;77.98
56042;BME280;48756;41.374;2.066;2023-04-26T02:39:13;100941.47;;;16.94;78.59
56042;BME280;48756;41.374;2.066;2023-04-26T02:41:38;100938.88;;;16.92;78.19
56042;BME280;48756;41.374;2.066;2023-04-26T02:44:04;100934.13;;;16.77;79.26
56042;BME280;48756;41.374;2.066;2023-04-26T02:46:29;100934.69;;;16.87;78.86
56042;BME280;48756;41.374;2.066;2023-04-26T02:48:55;100930.88;;;16.95;78.54
56042;BME280;48756;41.374;2.066;2023-04-26T02:51:27;100933.94;;;16.83;78.42
56042;BME280;48756;41.374;2.066;2023-04-26T02:53:52;100927.50;;;16.64;79.68
56042;BME280;48756;41.374;2.066;2023-04-26T02:56:17;100942.41;;;16.35;81.03
56042;BME280;48756;41.374;2.066;2023-04-26T02:58:43;100945.69;;;16.42;81.91
56042;BME280;48756;41.374;2.066;2023-04-26T03:01:09;100945.44;;;16.49;81.86
56042;BME280;48756;41.374;2.066;2023-04-26T03:03:34;100942.88;;;16.18;82.39
56042;BME280;48756;41.374;2.066;2023-04-26T03:06:01;100948.66;;;16.31;82.35
56042;BME280;48756;41.374;2.066;2023-04-26T03:08:26;100947.38;;;16.44;82.24
56042;BME280;48756;41.374;2.066;2023-04-26T03:10:52;100949.22;;;16.41;81.45
56042;BME280;48756;41.374;2.066;2023-04-26T03:13:18;100953.91;;;16.31;82.21
56042;BME280;48756;41.374;2.066;2023-04-26T03:15:44;100952.53;;;16.18;83.41
56042;BME280;48756;41.374;2.066;2023-04-26T03:18:11;100946.38;;;16.48;81.96
56042;BME280;48756;41.374;2.066;2023-04-26T03:20:37;100943.88;;;16.44;81.76
56042;BME280;48756;41.374;2.066;2023-04-26T03:23:03;100939.13;;;16.57;81.10
56042;BME280;48756;41.374;2.066;2023-04-26T03:25:28;100940.78;;;16.59;80.24
56042;BME280;48756;41.374;2.066;2023-04-26T03:27:54;100930.16;;;16.62;81.25
56042;BME280;48756;41.374;2.066;2023-04-26T03:30:20;100924.50;;;16.76;80.47
56042;BME280;48756;41.374;2.066;2023-04-26T03:32:46;100927.75;;;16.84;79.42
56042;BME280;48756;41.374;2.066;2023-04-26T03:35:11;100926.03;;;16.83;79.05
56042;BME280;48756;41.374;2.066;2023-04-26T03:37:37;100927.69;;;16.86;78.66
56042;BME280;48756;41.374;2.066;2023-04-26T03:40:05;100930.72;;;16.44;80.43
56042;BME280;48756;41.374;2.066;2023-04-26T03:42:32;100926.66;;;16.34;80.84
56042;BME280;48756;41.374;2.066;2023-04-26T03:44:57;100924.16;;;16.59;80.61
56042;BME280;48756;41.374;2.066;2023-04-26T03:47:23;100915.03;;;16.70;80.10
56042;BME280;48756;41.374;2.066;2023-04-26T03:49:48;100919.25;;;16.76;79.15
56042;BME280;48756;41.374;2.066;2023-04-26T03:52:14;100917.59;;;16.72;80.19
56042;BME280;48756;41.374;2.066;2023-04-26T03:54:39;100920.75;;;16.83;79.38
56042;BME280;48756;41.374;2.066;2023-04-26T03:57:05;100915.88;;;16.71;78.51
56042;BME280;48756;41.374;2.066;2023-04-26T03:59:31;100918.72;;;16.63;79.71
56042;BME280;48756;41.374;2.066;2023-04-26T04:01:57;100921.03;;;16.75;79.04
56042;BME280;48756;41.374;2.066;2023-04-26T04:04:22;100924.47;;;16.77;79.21
56042;BME280;48756;41.374;2.066;2023-04-26T04:06:47;100936.53;;;16.26;81.07
56042;BME280;48756;41.374;2.066;2023-04-26T04:09:13;100946.13;;;16.27;81.51
56042;BME280;48756;41.374;2.066;2023-04-26T04:11:39;100943.16;;;16.39;80.78
56042;BME280;48756;41.374;2.066;2023-04-26T04:14:04;100952.16;;;16.32;80.54
56042;BME280;48756;41.374;2.066;2023-04-26T04:16:31;100951.91;;;16.39;81.12
56042;BME280;48756;41.374;2.066;2023-04-26T04:18:56;100952.38;;;16.52;80.58
56042;BME280;48756;41.374;2.066;2023-04-26T04:21:22;100954.31;;;16.47;79.94
56042;BME280;48756;41.374;2.066;2023-04-26T04:23:48;100958.59;;;16.49;80.61
56042;BME280;48756;41.374;2.066;2023-04-26T04:26:14;100951.91;;;16.39;80.15
56042;BME280;48756;41.374;2.066;2023-04-26T04:28:40;100958.56;;;16.21;80.83
56042;BME280;48756;41.374;2.066;2023-04-26T04:31:06;100959.13;;;16.33;80.63
56042;BME280;48756;41.374;2.066;2023-04-26T04:33:34;100960.94;;;16.31;80.62
56042;BME280;48756;41.374;2.066;2023-04-26T04:35:59;100962.03;;;16.51;80.04
56042;BME280;48756;41.374;2.066;2023-04-26T04:38:25;100959.34;;;16.54;79.79
56042;BME280;48756;41.374;2.066;2023-04-26T04:40:50;100962.03;;;16.51;80.41
56042;BME280;48756;41.374;2.066;2023-04-26T04:43:16;100958.41;;;16.57;79.13
56042;BME280;48756;41.374;2.066;2023-04-26T04:45:42;100955.97;;;16.49;80.16
56042;BME280;48756;41.374;2.066;2023-04-26T04:48:07;100961.03;;;16.57;79.65
56042;BME280;48756;41.374;2.066;2023-04-26T04:50:33;100956.72;;;16.54;80.08
56042;BME280;48756;41.374;2.066;2023-04-26T04:52:59;100965.06;;;16.39;80.57
56042;BME280;48756;41.374;2.066;2023-04-26T04:55:25;100963.53;;;16.32;81.39
56042;BME280;48756;41.374;2.066;2023-04-26T04:57:50;100969.03;;;16.23;81.34
56042;BME280;48756;41.374;2.066;2023-04-26T05:00:16;100970.50;;;16.33;80.71
56042;BME280;48756;41.374;2.066;2023-04-26T05:02:42;100967.75;;;16.38;81.30
56042;BME280;48756;41.374;2.066;2023-04-26T05:05:07;100975.81;;;16.32;80.95
56042;BME280;48756;41.374;2.066;2023-04-26T05:07:33;100971.59;;;16.56;79.97
56042;BME280;48756;41.374;2.066;2023-04-26T05:09:59;100973.72;;;16.43;80.23
56042;BME280;48756;41.374;2.066;2023-04-26T05:12:24;100977.72;;;16.56;80.13
56042;BME280;48756;41.374;2.066;2023-04-26T05:14:50;100977.97;;;16.47;80.52
56042;BME280;48756;41.374;2.066;2023-04-26T05:17:15;100985.63;;;16.25;81.03
56042;BME280;48756;41.374;2.066;2023-04-26T05:19:41;100988.41;;;16.50;80.48
56042;BME280;48756;41.374;2.066;2023-04-26T05:22:06;100986.72;;;16.47;80.63
56042;BME280;48756;41.374;2.066;2023-04-26T05:24:32;100991.66;;;16.30;80.55
56042;BME280;48756;41.374;2.066;2023-04-26T05:26:57;100999.22;;;16.41;82.36
56042;BME280;48756;41.374;2.066;2023-04-26T05:29:23;100993.84;;;16.44;80.83
56042;BME280;48756;41.374;2.066;2023-04-26T05:31:49;101005.66;;;16.31;81.42
56042;BME280;48756;41.374;2.066;2023-04-26T05:34:14;101004.41;;;16.13;82.68
56042;BME280;48756;41.374;2.066;2023-04-26T05:36:43;101007.94;;;16.12;82.01
56042;BME280;48756;41.374;2.066;2023-04-26T05:39:08;101013.28;;;16.09;82.88
56042;BME280;48756;41.374;2.066;2023-04-26T05:41:34;101016.31;;;16.24;83.34
56042;BME280;48756;41.374;2.066;2023-04-26T05:43:59;101017.94;;;16.30;82.12
56042;BME280;48756;41.374;2.066;2023-04-26T05:46:25;101018.47;;;16.41;82.08
56042;BME280;48756;41.374;2.066;2023-04-26T05:48:50;101017.69;;;16.69;81.30
56042;BME280;48756;41.374;2.066;2023-04-26T05:51:16;101018.34;;;16.77;79.72
56042;BME280;48756;41.374;2.066;2023-04-26T05:53:41;101016.88;;;16.65;81.02
56042;BME280;48756;41.374;2.066;2023-04-26T05:56:07;101027.75;;;16.84;80.49
56042;BME280;48756;41.374;2.066;2023-04-26T05:58:32;101025.03;;;16.87;79.88
56042;BME280;48756;41.374;2.066;2023-04-26T06:00:58;101029.94;;;16.99;79.26
56042;BME280;48756;41.374;2.066;2023-04-26T06:03:23;101024.06;;;17.18;78.58
56042;BME280;48756;41.374;2.066;2023-04-26T06:05:48;101035.44;;;17.18;78.44
56042;BME280;48756;41.374;2.066;2023-04-26T06:08:14;101032.66;;;17.24;78.64
56042;BME280;48756;41.374;2.066;2023-04-26T06:10:39;101037.16;;;17.21;78.46
56042;BME280;48756;41.374;2.066;2023-04-26T06:13:05;101037.28;;;17.42;78.01
56042;BME280;48756;41.374;2.066;2023-04-26T06:15:30;101027.06;;;17.33;78.38
56042;BME280;48756;41.374;2.066;2023-04-26T06:17:56;101039.06;;;17.70;76.11
56042;BME280;48756;41.374;2.066;2023-04-26T06:20:22;101044.28;;;17.71;75.61
56042;BME280;48756;41.374;2.066;2023-04-26T06:22:47;101045.31;;;17.67;76.05
56042;BME280;48756;41.374;2.066;2023-04-26T06:25:13;101047.97;;;17.64;75.79
56042;BME280;48756;41.374;2.066;2023-04-26T06:27:39;101048.34;;;17.27;77.04
56042;BME280;48756;41.374;2.066;2023-04-26T06:30:06;101047.03;;;17.68;76.68
56042;BME280;48756;41.374;2.066;2023-04-26T06:32:33;101055.53;;;18.01;75.13
56042;BME280;48756;41.374;2.066;2023-04-26T06:34:59;101055.75;;;18.20;73.89
56042;BME280;48756;41.374;2.066;2023-04-26T06:37:24;101057.84;;;18.35;72.79
56042;BME280;48756;41.374;2.066;2023-04-26T06:39:49;101054.78;;;18.23;73.32
56042;BME280;48756;41.374;2.066;2023-04-26T06:42:15;101057.13;;;17.81;74.52
56042;BME280;48756;41.374;2.066;2023-04-26T06:44:41;101053.34;;;18.14;73.41
56042;BME280;48756;41.374;2.066;2023-04-26T06:47:06;101063.31;;;18.29;72.64
56042;BME280;48756;41.374;2.066;2023-04-26T06:49:33;101054.72;;;18.24;72.34
56042;BME280;48756;41.374;2.066;2023-04-26T06:51:59;101047.94;;;18.17;72.67
56042;BME280;48756;41.374;2.066;2023-04-26T06:54:28;101044.31;;;18.45;72.28
56042;BME280;48756;41.374;2.066;2023-04-26T06:56:53;101055.06;;;18.63;71.03
56042;BME280;48756;41.374;2.066;2023-04-26T06:59:18;101051.97;;;18.97;70.08
56042;BME280;48756;41.374;2.066;2023-04-26T07:01:44;101055.97;;;18.86;68.87
56042;BME280;48756;41.374;2.066;2023-04-26T07:04:10;101060.44;;;18.84;71.18
56042;BME280;48756;41.374;2.066;2023-04-26T07:06:36;101048.53;;;18.95;68.92
56042;BME280;48756;41.374;2.066;2023-04-26T07:09:02;101048.75;;;19.13;69.13
56042;BME280;48756;41.374;2.066;2023-04-26T07:11:28;101047.81;;;19.57;68.68
56042;BME280;48756;41.374;2.066;2023-04-26T07:13:55;101053.41;;;19.06;70.62
56042;BME280;48756;41.374;2.066;2023-04-26T07:16:21;101063.78;;;19.11;70.94
56042;BME280;48756;41.374;2.066;2023-04-26T07:18:47;101057.13;;;19.44;70.21
56042;BME280;48756;41.374;2.066;2023-04-26T07:21:13;101063.25;;;19.46;69.45
56042;BME280;48756;41.374;2.066;2023-04-26T07:23:38;101062.16;;;19.94;68.43
56042;BME280;48756;41.374;2.066;2023-04-26T07:26:04;101054.53;;;20.07;68.01
56042;BME280;48756;41.374;2.066;2023-04-26T07:28:29;101051.13;;;19.63;69.83
56042;BME280;48756;41.374;2.066;2023-04-26T07:30:58;101055.13;;;19.51;71.79
56042;BME280;48756;41.374;2.066;2023-04-26T07:33:24;101050.59;;;19.54;71.65
56042;BME280;48756;41.374;2.066;2023-04-26T07:35:54;101039.97;;;20.17;68.53
56042;BME280;48756;41.374;2.066;2023-04-26T07:38:23;101049.56;;;20.19;69.60
56042;BME280;48756;41.374;2.066;2023-04-26T07:40:49;101049.31;;;20.05;68.55
56042;BME280;48756;41.374;2.066;2023-04-26T07:43:15;101058.59;;;20.55;68.10
56042;BME280;48756;41.374;2.066;2023-04-26T07:45:41;101059.69;;;20.69;66.68
56042;BME280;48756;41.374;2.066;2023-04-26T07:48:06;101057.91;;;20.89;66.65
56042;BME280;48756;41.374;2.066;2023-04-26T07:50:32;101066.16;;;20.83;67.00
56042;BME280;48756;41.374;2.066;2023-04-26T07:52:57;101064.41;;;20.82;67.56
56042;BME280;48756;41.374;2.066;2023-04-26T07:55:23;101054.88;;;21.15;66.13
56042;BME280;48756;41.374;2.066;2023-04-26T07:57:49;101047.69;;;21.36;66.09
56042;BME280;48756;41.374;2.066;2023-04-26T08:00:14;101055.66;;;20.98;65.17
56042;BME280;48756;41.374;2.066;2023-04-26T08:02:43;101054.88;;;20.96;65.24
56042;BME280;48756;41.374;2.066;2023-04-26T08:05:09;101047.63;;;21.00;66.12
56042;BME280;48756;41.374;2.066;2023-04-26T08:07:38;101055.38;;;21.59;63.90
56042;BME280;48756;41.374;2.066;2023-04-26T08:10:03;101054.19;;;21.65;63.24
56042;BME280;48756;41.374;2.066;2023-04-26T08:12:29;101061.97;;;21.33;64.07
56042;BME280;48756;41.374;2.066;2023-04-26T08:14:55;101051.38;;;21.51;65.04
56042;BME280;48756;41.374;2.066;2023-04-26T08:17:20;101063.59;;;22.07;60.82
56042;BME280;48756;41.374;2.066;2023-04-26T08:19:46;101062.22;;;22.15;61.10
56042;BME280;48756;41.374;2.066;2023-04-26T08:22:11;101058.97;;;22.10;60.42
56042;BME280;48756;41.374;2.066;2023-04-26T08:24:36;101053.56;;;22.29;60.42
56042;BME280;48756;41.374;2.066;2023-04-26T08:27:02;101057.75;;;22.33;59.05
56042;BME280;48756;41.374;2.066;2023-04-26T08:29:27;101054.19;;;21.99;60.27
56042;BME280;48756;41.374;2.066;2023-04-26T08:31:53;101063.09;;;22.16;60.69
56042;BME280;48756;41.374;2.066;2023-04-26T08:34:18;101059.19;;;22.89;58.79
56042;BME280;48756;41.374;2.066;2023-04-26T08:36:44;101067.47;;;22.83;58.36
56042;BME280;48756;41.374;2.066;2023-04-26T08:39:10;101063.13;;;22.98;57.87
56042;BME280;48756;41.374;2.066;2023-04-26T08:41:43;101066.47;;;23.33;57.07
56042;BME280;48756;41.374;2.066;2023-04-26T08:44:08;101067.81;;;23.24;57.43
56042;BME280;48756;41.374;2.066;2023-04-26T08:46:49;101068.53;;;23.12;58.75
56042;BME280;48756;41.374;2.066;2023-04-26T08:51:49;101079.94;;;23.14;57.11
56042;BME280;48756;41.374;2.066;2023-04-26T08:54:16;101083.28;;;23.17;57.06
56042;BME280;48756;41.374;2.066;2023-04-26T08:56:42;101092.00;;;22.88;56.57
56042;BME280;48756;41.374;2.066;2023-04-26T08:59:08;101083.50;;;22.48;58.50
56042;BME280;48756;41.374;2.066;2023-04-26T09:01:34;101089.94;;;22.93;57.24
56042;BME280;48756;41.374;2.066;2023-04-26T09:04:01;101085.41;;;22.62;58.12
56042;BME280;48756;41.374;2.066;2023-04-26T09:06:27;101087.28;;;22.93;57.51
56042;BME280;48756;41.374;2.066;2023-04-26T09:08:53;101089.25;;;22.56;59.03
56042;BME280;48756;41.374;2.066;2023-04-26T09:11:19;101090.50;;;22.67;59.57
56042;BME280;48756;41.374;2.066;2023-04-26T09:13:45;101091.47;;;22.48;59.47
56042;BME280;48756;41.374;2.066;2023-04-26T09:16:10;101088.91;;;22.62;59.08
56042;BME280;48756;41.374;2.066;2023-04-26T09:18:45;101093.63;;;23.06;57.80
56042;BME280;48756;41.374;2.066;2023-04-26T09:21:11;101093.56;;;23.23;57.54
56042;BME280;48756;41.374;2.066;2023-04-26T09:23:55;101099.34;;;22.83;56.63
56042;BME280;48756;41.374;2.066;2023-04-26T09:26:21;101095.88;;;22.98;56.69
56042;BME280;48756;41.374;2.066;2023-04-26T09:28:46;101100.28;;;22.82;58.07
56042;BME280;48756;41.374;2.066;2023-04-26T09:31:13;101100.75;;;23.06;56.86
56042;BME280;48756;41.374;2.066;2023-04-26T09:33:56;101110.53;;;23.05;56.86
56042;BME280;48756;41.374;2.066;2023-04-26T09:36:22;101110.78;;;23.01;56.49
56042;BME280;48756;41.374;2.066;2023-04-26T09:38:47;101111.97;;;22.62;57.24
56042;BME280;48756;41.374;2.066;2023-04-26T09:41:13;101110.19;;;23.11;56.75
56042;BME280;48756;41.374;2.066;2023-04-26T09:43:38;101110.41;;;22.42;59.16
56042;BME280;48756;41.374;2.066;2023-04-26T09:46:04;101110.09;;;22.97;58.31
56042;BME280;48756;41.374;2.066;2023-04-26T09:48:32;101111.63;;;23.01;56.92
56042;BME280;48756;41.374;2.066;2023-04-26T09:51:07;101110.09;;;22.97;57.21
56042;BME280;48756;41.374;2.066;2023-04-26T09:53:33;101110.13;;;22.80;57.70
56042;BME280;48756;41.374;2.066;2023-04-26T09:56:08;101116.72;;;22.73;58.21
56042;BME280;48756;41.374;2.066;2023-04-26T09:58:37;101117.13;;;22.65;59.12
56042;BME280;48756;41.374;2.066;2023-04-26T10:01:03;101115.69;;;23.24;57.07
56042;BME280;48756;41.374;2.066;2023-04-26T10:03:29;101113.59;;;22.82;58.09
56042;BME280;48756;41.374;2.066;2023-04-26T10:05:57;101115.88;;;22.05;60.68
56042;BME280;48756;41.374;2.066;2023-04-26T10:08:22;101120.22;;;22.40;60.28
56042;BME280;48756;41.374;2.066;2023-04-26T10:10:48;101121.94;;;23.23;57.10
56042;BME280;48756;41.374;2.066;2023-04-26T10:13:14;101122.38;;;23.15;57.29
56042;BME280;48756;41.374;2.066;2023-04-26T10:15:40;101118.34;;;23.24;56.78
56042;BME280;48756;41.374;2.066;2023-04-26T10:18:06;101119.00;;;22.96;57.79
56042;BME280;48756;41.374;2.066;2023-04-26T10:20:37;101115.66;;;22.59;59.12
56042;BME280;48756;41.374;2.066;2023-04-26T10:23:04;101126.41;;;22.74;59.69
56042;BME280;48756;41.374;2.066;2023-04-26T10:25:35;101119.19;;;22.93;58.79
56042;BME280;48756;41.374;2.066;2023-04-26T10:28:02;101122.53;;;22.79;60.07
56042;BME280;48756;41.374;2.066;2023-04-26T10:30:27;101118.19;;;23.11;58.95
56042;BME280;48756;41.374;2.066;2023-04-26T10:35:23;101116.13;;;22.68;60.97
56042;BME280;48756;41.374;2.066;2023-04-26T10:38:31;101114.50;;;22.81;60.08
56042;BME280;48756;41.374;2.066;2023-04-26T10:40:37;101122.22;;;22.52;61.31
56042;BME280;48756;41.374;2.066;2023-04-26T10:45:39;101121.41;;;22.35;62.15
56042;BME280;48756;41.374;2.066;2023-04-26T10:56:08;101115.75;;;22.91;59.88
56042;BME280;48756;41.374;2.066;2023-04-26T10:58:33;101121.16;;;23.05;59.05
56042;BME280;48756;41.374;2.066;2023-04-26T11:01:05;101116.69;;;22.90;58.81
56042;BME280;48756;41.374;2.066;2023-04-26T11:03:35;101126.31;;;22.75;59.88
56042;BME280;48756;41.374;2.066;2023-04-26T11:06:04;101117.06;;;22.67;60.63
56042;BME280;48756;41.374;2.066;2023-04-26T11:08:31;101123.53;;;22.61;61.43
56042;BME280;48756;41.374;2.066;2023-04-26T11:13:21;101114.75;;;22.43;62.64
56042;BME280;48756;41.374;2.066;2023-04-26T11:15:51;101109.72;;;22.54;61.74
56042;BME280;48756;41.374;2.066;2023-04-26T11:18:20;101110.84;;;22.50;61.00
56042;BME280;48756;41.374;2.066;2023-04-26T11:20:45;101108.66;;;22.74;60.63
56042;BME280;48756;41.374;2.066;2023-04-26T11:23:11;101101.50;;;23.55;58.87
56042;BME280;48756;41.374;2.066;2023-04-26T11:25:40;101094.16;;;23.60;59.43
56042;BME280;48756;41.374;2.066;2023-04-26T11:28:06;101087.28;;;23.86;57.80
56042;BME280;48756;41.374;2.066;2023-04-26T11:30:31;101088.66;;;24.37;55.77
56042;BME280;48756;41.374;2.066;2023-04-26T11:32:58;101073.69;;;24.92;53.76
56042;BME280;48756;41.374;2.066;2023-04-26T11:35:23;101074.75;;;24.61;53.38
56042;BME280;48756;41.374;2.066;2023-04-26T11:37:50;101075.03;;;24.99;52.69
56042;BME280;48756;41.374;2.066;2023-04-26T11:40:16;101079.50;;;23.83;56.43
56042;BME280;48756;41.374;2.066;2023-04-26T11:42:42;101075.09;;;24.12;56.66
56042;BME280;48756;41.374;2.066;2023-04-26T11:45:08;101076.47;;;23.43;57.56
56042;BME280;48756;41.374;2.066;2023-04-26T11:47:34;101065.00;;;23.73;56.90
56042;BME280;48756;41.374;2.066;2023-04-26T11:50:02;101061.25;;;24.64;54.81
56042;BME280;48756;41.374;2.066;2023-04-26T11:52:28;101058.16;;;24.13;56.49
56042;BME280;48756;41.374;2.066;2023-04-26T11:55:00;101058.69;;;23.90;57.64
56042;BME280;48756;41.374;2.066;2023-04-26T11:57:29;101054.88;;;25.22;53.30
56042;BME280;48756;41.374;2.066;2023-04-26T12:00:05;101052.78;;;24.29;55.76
56042;BME280;48756;41.374;2.066;2023-04-26T12:02:30;101057.50;;;24.95;53.61
56042;BME280;48756;41.374;2.066;2023-04-26T12:04:59;101057.06;;;24.74;52.29
56042;BME280;48756;41.374;2.066;2023-04-26T12:07:24;101054.91;;;25.08;52.59
56042;BME280;48756;41.374;2.066;2023-04-26T12:09:51;101045.72;;;25.26;51.85
56042;BME280;48756;41.374;2.066;2023-04-26T12:12:16;101047.50;;;25.13;52.83
56042;BME280;48756;41.374;2.066;2023-04-26T12:14:42;101052.13;;;24.39;54.56
56042;BME280;48756;41.374;2.066;2023-04-26T12:17:09;101043.66;;;24.47;53.81
56042;BME280;48756;41.374;2.066;2023-04-26T12:19:38;101048.50;;;24.69;52.01
56042;BME280;48756;41.374;2.066;2023-04-26T12:22:04;101037.94;;;25.23;50.66
56042;BME280;48756;41.374;2.066;2023-04-26T12:24:30;101035.44;;;24.79;52.63
56042;BME280;48756;41.374;2.066;2023-04-26T12:26:58;101048.38;;;23.99;54.17
56042;BME280;48756;41.374;2.066;2023-04-26T12:29:24;101044.84;;;24.13;54.36
56042;BME280;48756;41.374;2.066;2023-04-26T12:31:50;101045.81;;;24.26;54.87
56042;BME280;48756;41.374;2.066;2023-04-26T12:34:15;101047.63;;;24.26;54.66
56042;BME280;48756;41.374;2.066;2023-04-26T12:36:41;101039.59;;;23.97;56.53
56042;BME280;48756;41.374;2.066;2023-04-26T12:39:09;101034.13;;;24.57;53.60
56042;BME280;48756;41.374;2.066;2023-04-26T12:41:35;101036.66;;;25.01;54.14
56042;BME280;48756;41.374;2.066;2023-04-26T12:44:01;101035.75;;;25.42;51.11
56042;BME280;48756;41.374;2.066;2023-04-26T12:46:26;101026.16;;;24.29;54.03
56042;BME280;48756;41.374;2.066;2023-04-26T12:48:51;101041.38;;;24.41;54.86
56042;BME280;48756;41.374;2.066;2023-04-26T12:51:17;101052.63;;;23.42;57.56
56042;BME280;48756;41.374;2.066;2023-04-26T12:53:42;101052.13;;;23.19;60.36
56042;BME280;48756;41.374;2.066;2023-04-26T12:56:08;101043.78;;;24.46;56.53
56042;BME280;48756;41.374;2.066;2023-04-26T12:58:33;101036.41;;;25.46;52.74
56042;BME280;48756;41.374;2.066;2023-04-26T13:00:59;101035.28;;;25.62;51.04
56042;BME280;48756;41.374;2.066;2023-04-26T13:03:25;101036.31;;;25.20;52.18